Time;durP1;ratioP1;P1;durP2;ratioP2;P2;SDS_P1;SDS_P2;PMS_P1;PMS_P2;Temp;Humidity;BMP_temperature;BMP_pressure;BME280_temperature;BME280_humidity;BME280_pressure;Samples;Min_cycle;Max_cycle;Signal;HPM_P1;HPM_P2
2022/08/01 00:01:40;;;;;;;4.30;2.57;;;;;;;;;;4951959;28;20436;-36
2022/08/01 00:04:06;;;;;;;3.50;2.80;;;;;;;;;;4954726;28;20594;-36
2022/08/01 00:06:33;;;;;;;4.30;2.53;;;;;;;;;;4957972;28;20232;-36
2022/08/01 00:08:59;;;;;;;4.60;2.67;;;;;;;;;;4955709;28;20297;-36
2022/08/01 00:11:25;;;;;;;2.83;2.30;;;;;;;;;;4952206;28;20174;-36
2022/08/01 00:13:51;;;;;;;3.33;2.50;;;;;;;;;;4953029;28;20174;-36
2022/08/01 00:16:17;;;;;;;5.43;2.50;;;;;;;;;;4951533;28;20193;-36
2022/08/01 00:18:43;;;;;;;4.53;2.40;;;;;;;;;;4952750;28;20212;-36
2022/08/01 00:21:09;;;;;;;3.43;2.33;;;;;;;;;;4952553;28;20819;-37
2022/08/01 00:23:35;;;;;;;4.80;2.50;;;;;;;;;;4956101;28;20964;-36
2022/08/01 00:26:02;;;;;;;3.83;2.20;;;;;;;;;;4953079;28;20383;-36
2022/08/01 00:28:28;;;;;;;2.50;2.23;;;;;;;;;;4951723;28;20600;-36
2022/08/01 00:30:54;;;;;;;3.97;2.33;;;;;;;;;;4955455;28;20178;-37
2022/08/01 00:33:20;;;;;;;5.10;2.40;;;;;;;;;;4955813;28;20260;-36
2022/08/01 00:35:46;;;;;;;4.07;2.67;;;;;;;;;;4954063;28;20192;-36
2022/08/01 00:38:12;;;;;;;3.63;2.30;;;;;;;;;;4950369;28;20214;-37
2022/08/01 00:40:38;;;;;;;4.17;2.40;;;;;;;;;;4950873;28;20186;-37
2022/08/01 00:43:04;;;;;;;3.07;2.30;;;;;;;;;;4952632;28;20281;-43
2022/08/01 00:45:30;;;;;;;3.07;2.73;;;;;;;;;;4954909;28;20193;-37
2022/08/01 00:47:57;;;;;;;2.30;2.10;;;;;;;;;;4952866;28;20844;-36
2022/08/01 00:50:23;;;;;;;3.70;2.90;;;;;;;;;;4953322;28;20828;-36
2022/08/01 00:52:49;;;;;;;4.57;2.60;;;;;;;;;;4956342;28;20178;-36
2022/08/01 00:55:16;;;;;;;2.73;2.43;;;;;;;;;;4955881;28;20178;-36
2022/08/01 00:57:42;;;;;;;5.80;2.70;;;;;;;;;;4954811;28;20635;-36
2022/08/01 01:00:08;;;;;;;2.90;2.17;;;;;;;;;;4949103;28;20193;-36
2022/08/01 01:02:36;;;;;;;3.37;2.37;;;;;;;;;;4950524;28;20207;-36
2022/08/01 01:05:02;;;;;;;4.43;2.57;;;;;;;;;;4956620;28;20196;-36
2022/08/01 01:07:37;;;;;;;3.33;2.03;;;;;;;;;;4953547;28;20308;-36
2022/08/01 01:10:16;;;;;;;6.93;2.67;;;;;;;;;;4953263;28;20587;-37
2022/08/01 01:12:45;;;;;;;2.97;2.40;;;;;;;;;;4983974;28;20629;-36
2022/08/01 01:15:11;;;;;;;2.57;2.37;;;;;;;;;;4954046;28;20185;-36
2022/08/01 01:17:52;;;;;;;2.33;2.10;;;;;;;;;;4951115;28;20502;-36
2022/08/01 01:20:18;;;;;;;3.77;2.20;;;;;;;;;;4953458;28;20263;-36
2022/08/01 01:22:53;;;;;;;4.60;2.10;;;;;;;;;;4956047;28;20373;-36
2022/08/01 01:25:20;;;;;;;2.50;2.17;;;;;;;;;;4957376;28;20708;-35
2022/08/01 01:27:50;;;;;;;4.67;2.30;;;;;;;;;;4951818;28;20194;-36
2022/08/01 01:30:17;;;;;;;2.90;2.13;;;;;;;;;;4985558;28;20488;-37
2022/08/01 01:32:44;;;;;;;2.40;2.20;;;;;;;;;;4951844;28;20209;-36
2022/08/01 01:35:20;;;;;;;4.90;2.50;;;;;;;;;;4957749;28;20223;-37
2022/08/01 01:37:48;;;;;;;2.87;2.30;;;;;;;;;;4956086;28;20384;-37
2022/08/01 01:40:14;;;;;;;6.80;2.50;;;;;;;;;;4955514;28;20599;-36
2022/08/01 01:42:42;;;;;;;5.77;2.30;;;;;;;;;;4956574;28;20174;-37
2022/08/01 01:45:09;;;;;;;4.07;2.30;;;;;;;;;;4957310;28;20438;-36
2022/08/01 01:47:37;;;;;;;3.53;2.10;;;;;;;;;;4954970;28;20182;-36
2022/08/01 01:50:04;;;;;;;3.67;2.40;;;;;;;;;;4956129;28;20214;-36
2022/08/01 01:52:31;;;;;;;5.83;2.23;;;;;;;;;;4957092;28;20193;-36
2022/08/01 01:54:59;;;;;;;2.30;2.10;;;;;;;;;;4957202;28;20245;-37
2022/08/01 01:57:25;;;;;;;3.77;2.43;;;;;;;;;;4958708;28;20925;-36
2022/08/01 01:59:52;;;;;;;3.00;2.03;;;;;;;;;;4955144;28;20617;-36
2022/08/01 02:02:19;;;;;;;2.47;2.27;;;;;;;;;;4955569;28;20301;-36
2022/08/01 02:04:46;;;;;;;2.73;2.13;;;;;;;;;;4954608;28;20178;-37
2022/08/01 02:07:14;;;;;;;3.13;2.10;;;;;;;;;;4956611;28;20248;-36
2022/08/01 02:09:42;;;;;;;3.03;2.13;;;;;;;;;;4956832;28;20685;-37
2022/08/01 02:12:10;;;;;;;3.97;2.33;;;;;;;;;;4954340;28;20186;-37
2022/08/01 02:14:39;;;;;;;3.33;2.40;;;;;;;;;;4955529;28;20587;-36
2022/08/01 02:17:06;;;;;;;3.77;2.57;;;;;;;;;;4985957;28;20182;-36
2022/08/01 02:19:35;;;;;;;4.10;2.20;;;;;;;;;;4958054;28;20702;-36
2022/08/01 02:22:05;;;;;;;4.47;2.23;;;;;;;;;;4955617;28;20244;-37
2022/08/01 02:24:41;;;;;;;3.70;2.30;;;;;;;;;;4953410;28;20167;-37
2022/08/01 02:27:12;;;;;;;3.17;2.30;;;;;;;;;;4953938;28;20185;-37
2022/08/01 02:29:47;;;;;;;4.70;2.50;;;;;;;;;;4954356;28;20847;-37
2022/08/01 02:32:17;;;;;;;2.83;2.20;;;;;;;;;;4953616;28;20185;-37
2022/08/01 02:34:46;;;;;;;4.83;2.50;;;;;;;;;;4954620;28;20178;-35
2022/08/01 02:37:13;;;;;;;2.83;2.53;;;;;;;;;;4958250;28;20182;-35
2022/08/01 02:39:40;;;;;;;4.07;2.83;;;;;;;;;;4956122;28;20510;-35
2022/08/01 02:42:08;;;;;;;6.50;2.87;;;;;;;;;;4957302;28;20173;-36
2022/08/01 02:44:38;;;;;;;3.67;2.60;;;;;;;;;;4985732;28;20662;-36
2022/08/01 02:47:04;;;;;;;3.53;2.63;;;;;;;;;;4957142;28;20253;-36
2022/08/01 02:49:35;;;;;;;3.77;2.77;;;;;;;;;;4956322;28;20258;-35
2022/08/01 02:52:04;;;;;;;4.57;3.03;;;;;;;;;;4956270;28;20455;-37
2022/08/01 02:54:31;;;;;;;3.80;2.10;;;;;;;;;;4956333;28;20607;-36
2022/08/01 02:56:57;;;;;;;3.80;2.50;;;;;;;;;;4958498;28;20174;-36
2022/08/01 02:59:25;;;;;;;5.37;2.30;;;;;;;;;;4957103;28;20772;-36
2022/08/01 03:01:52;;;;;;;4.10;2.60;;;;;;;;;;4954028;28;20174;-35
2022/08/01 03:04:19;;;;;;;5.00;2.50;;;;;;;;;;4953304;28;20477;-35
2022/08/01 03:06:46;;;;;;;3.10;2.20;;;;;;;;;;4956242;28;20591;-36
2022/08/01 03:09:13;;;;;;;4.23;2.27;;;;;;;;;;4956704;28;20722;-36
2022/08/01 03:11:40;;;;;;;3.10;2.30;;;;;;;;;;4955894;28;20182;-36
2022/08/01 03:14:08;;;;;;;4.03;2.70;;;;;;;;;;4955064;28;20619;-35
2022/08/01 03:16:36;;;;;;;3.00;2.63;;;;;;;;;;4953741;28;20672;-35
2022/08/01 03:19:03;;;;;;;3.43;2.53;;;;;;;;;;4955168;28;20284;-35
2022/08/01 03:21:30;;;;;;;5.80;2.90;;;;;;;;;;4956295;28;20606;-36
2022/08/01 03:23:58;;;;;;;3.53;2.87;;;;;;;;;;4954207;28;20265;-35
2022/08/01 03:26:28;;;;;;;4.83;2.80;;;;;;;;;;4953004;28;20624;-36
2022/08/01 03:28:56;;;;;;;3.40;3.10;;;;;;;;;;4962894;28;20190;-35
2022/08/01 03:31:23;;;;;;;5.33;3.40;;;;;;;;;;4954322;28;20200;-35
2022/08/01 03:33:49;;;;;;;4.23;3.80;;;;;;;;;;4953006;28;20285;-36
2022/08/01 03:36:16;;;;;;;4.23;3.47;;;;;;;;;;4953808;28;20190;-35
2022/08/01 03:38:49;;;;;;;6.80;4.13;;;;;;;;;;4955729;28;20209;-36
2022/08/01 03:41:20;;;;;;;6.40;3.97;;;;;;;;;;4953595;28;20174;-36
2022/08/01 03:43:53;;;;;;;6.40;4.63;;;;;;;;;;4952825;28;20507;-36
2022/08/01 03:46:27;;;;;;;6.20;4.07;;;;;;;;;;4955527;28;20209;-36
2022/08/01 03:48:54;;;;;;;4.90;3.60;;;;;;;;;;4955206;28;20181;-37
2022/08/01 03:51:22;;;;;;;4.50;4.10;;;;;;;;;;4954487;28;20931;-36
2022/08/01 03:53:50;;;;;;;6.33;4.53;;;;;;;;;;4954092;28;20178;-36
2022/08/01 03:56:19;;;;;;;5.80;4.40;;;;;;;;;;4953639;28;20189;-36
2022/08/01 03:58:46;;;;;;;4.53;4.00;;;;;;;;;;4957094;28;20881;-36
2022/08/01 04:01:12;;;;;;;5.37;4.10;;;;;;;;;;4954917;28;20204;-37
2022/08/01 04:03:38;;;;;;;5.43;4.60;;;;;;;;;;4951919;28;20189;-36
2022/08/01 04:06:05;;;;;;;7.13;4.57;;;;;;;;;;4952260;28;20280;-36
2022/08/01 04:08:38;;;;;;;5.83;4.50;;;;;;;;;;4956999;28;20174;-36
2022/08/01 04:11:04;;;;;;;8.13;4.33;;;;;;;;;;4950440;28;20276;-37
2022/08/01 04:13:33;;;;;;;5.83;4.33;;;;;;;;;;4953562;28;20611;-36
2022/08/01 04:16:00;;;;;;;5.33;4.33;;;;;;;;;;4954838;28;21663;-36
2022/08/01 04:18:26;;;;;;;6.97;4.50;;;;;;;;;;4948620;28;20740;-36
2022/08/01 04:20:53;;;;;;;5.07;4.50;;;;;;;;;;4953349;28;20845;-36
2022/08/01 04:23:21;;;;;;;8.23;4.43;;;;;;;;;;4955036;28;20180;-36
2022/08/01 04:25:49;;;;;;;6.27;4.70;;;;;;;;;;4956234;28;20182;-36
2022/08/01 04:28:16;;;;;;;8.03;4.83;;;;;;;;;;4951849;28;20217;-36
2022/08/01 04:30:43;;;;;;;5.43;4.70;;;;;;;;;;4950323;28;20276;-36
2022/08/01 04:33:10;;;;;;;8.00;5.40;;;;;;;;;;4951594;28;20409;-36
2022/08/01 04:35:37;;;;;;;7.63;5.43;;;;;;;;;;4955854;28;20636;-36
2022/08/01 04:38:04;;;;;;;5.93;4.77;;;;;;;;;;4953302;28;20719;-36
2022/08/01 04:40:31;;;;;;;7.70;5.53;;;;;;;;;;4951416;28;20297;-36
2022/08/01 04:42:57;;;;;;;6.27;4.83;;;;;;;;;;4952510;28;20170;-36
2022/08/01 04:45:24;;;;;;;8.40;5.23;;;;;;;;;;4951515;28;20417;-36
2022/08/01 04:47:50;;;;;;;7.20;6.00;;;;;;;;;;4957674;28;20450;-36
2022/08/01 04:50:16;;;;;;;14.60;8.17;;;;;;;;;;4952710;28;20174;-36
2022/08/01 04:52:43;;;;;;;6.40;5.57;;;;;;;;;;4955238;28;20178;-36
2022/08/01 04:55:10;;;;;;;7.67;6.10;;;;;;;;;;4956227;28;20212;-36
2022/08/01 04:57:37;;;;;;;6.47;5.10;;;;;;;;;;4956829;28;20348;-36
2022/08/01 05:00:06;;;;;;;13.23;6.60;;;;;;;;;;4954069;28;20828;-36
2022/08/01 05:02:32;;;;;;;9.20;6.67;;;;;;;;;;4952308;28;20194;-36
2022/08/01 05:04:58;;;;;;;9.47;6.73;;;;;;;;;;4952333;28;20404;-36
2022/08/01 05:07:24;;;;;;;8.67;7.30;;;;;;;;;;4956264;28;20540;-36
2022/08/01 05:09:50;;;;;;;9.23;7.10;;;;;;;;;;4959507;28;20546;-36
2022/08/01 05:12:17;;;;;;;10.17;7.07;;;;;;;;;;4959345;28;20321;-36
2022/08/01 05:14:43;;;;;;;11.07;6.93;;;;;;;;;;4956211;28;20339;-36
2022/08/01 05:17:09;;;;;;;10.70;6.00;;;;;;;;;;4955149;28;20174;-36
2022/08/01 05:19:36;;;;;;;8.43;5.70;;;;;;;;;;4956496;28;20215;-37
2022/08/01 05:22:04;;;;;;;7.00;4.70;;;;;;;;;;4987962;28;21470;-36
2022/08/01 05:24:46;;;;;;;6.87;4.87;;;;;;;;;;4951945;28;21071;-36
2022/08/01 05:27:13;;;;;;;7.23;5.27;;;;;;;;;;4953485;28;21195;-37
2022/08/01 05:29:39;;;;;;;7.53;5.40;;;;;;;;;;4955169;28;20193;-37
2022/08/01 05:32:05;;;;;;;5.20;4.70;;;;;;;;;;4952781;28;20190;-36
2022/08/01 05:34:31;;;;;;;8.47;5.60;;;;;;;;;;4952071;28;20657;-44
2022/08/01 05:36:58;;;;;;;8.10;5.10;;;;;;;;;;4949316;28;20995;-36
2022/08/01 05:39:24;;;;;;;8.13;4.83;;;;;;;;;;4954619;28;20190;-37
2022/08/01 05:41:50;;;;;;;8.47;5.07;;;;;;;;;;4958401;28;20173;-37
2022/08/01 05:44:16;;;;;;;6.80;4.53;;;;;;;;;;4959482;28;20252;-36
2022/08/01 05:46:42;;;;;;;7.87;5.03;;;;;;;;;;4959424;28;20174;-36
2022/08/01 05:49:08;;;;;;;6.93;5.07;;;;;;;;;;4956891;28;20885;-36
2022/08/01 05:51:34;;;;;;;6.83;4.70;;;;;;;;;;4953833;28;20217;-37
2022/08/01 05:54:00;;;;;;;7.33;5.00;;;;;;;;;;4955034;28;20615;-37
2022/08/01 05:56:26;;;;;;;5.53;4.23;;;;;;;;;;4959807;28;20760;-36
2022/08/01 05:58:53;;;;;;;5.30;4.10;;;;;;;;;;4962205;28;20666;-36
2022/08/01 06:01:19;;;;;;;6.10;3.70;;;;;;;;;;4983734;28;20843;-36
2022/08/01 06:03:46;;;;;;;5.83;3.70;;;;;;;;;;4951732;28;20559;-36
2022/08/01 06:06:13;;;;;;;5.63;3.90;;;;;;;;;;4958060;28;20664;-37
2022/08/01 06:08:39;;;;;;;4.87;3.43;;;;;;;;;;4958996;28;20289;-37
2022/08/01 06:11:05;;;;;;;6.27;4.00;;;;;;;;;;4955862;28;20186;-36
2022/08/01 06:13:32;;;;;;;5.33;4.37;;;;;;;;;;4951798;28;20234;-37
2022/08/01 06:15:58;;;;;;;5.17;3.67;;;;;;;;;;4949738;28;20178;-36
2022/08/01 06:18:24;;;;;;;7.43;5.13;;;;;;;;;;4951946;28;20203;-37
2022/08/01 06:20:50;;;;;;;5.90;5.30;;;;;;;;;;4950220;28;20673;-37
2022/08/01 06:23:17;;;;;;;7.13;5.43;;;;;;;;;;4948210;28;20217;-37
2022/08/01 06:25:43;;;;;;;6.73;5.20;;;;;;;;;;4948621;28;20186;-37
2022/08/01 06:28:10;;;;;;;8.10;5.87;;;;;;;;;;4952782;28;20212;-37
2022/08/01 06:30:36;;;;;;;5.80;4.80;;;;;;;;;;4945939;28;20182;-36
2022/08/01 06:33:02;;;;;;;6.30;4.53;;;;;;;;;;4944875;28;20512;-37
2022/08/01 06:35:29;;;;;;;7.37;4.70;;;;;;;;;;4947462;28;20348;-36
2022/08/01 06:37:55;;;;;;;7.93;4.60;;;;;;;;;;4947456;28;20382;-37
2022/08/01 06:40:22;;;;;;;5.67;4.03;;;;;;;;;;4947381;28;20178;-36
2022/08/01 06:42:48;;;;;;;9.90;4.57;;;;;;;;;;4946820;28;20594;-37
2022/08/01 06:45:15;;;;;;;6.50;3.90;;;;;;;;;;4947092;28;20778;-36
2022/08/01 06:47:42;;;;;;;5.27;3.63;;;;;;;;;;4948237;28;20256;-37
2022/08/01 06:50:08;;;;;;;5.87;3.33;;;;;;;;;;4944086;28;20594;-37
2022/08/01 06:52:35;;;;;;;5.30;3.63;;;;;;;;;;4946128;28;21024;-36
2022/08/01 06:55:01;;;;;;;4.43;3.17;;;;;;;;;;4946761;28;20181;-36
2022/08/01 06:57:27;;;;;;;3.47;2.80;;;;;;;;;;4948434;28;20475;-36
2022/08/01 06:59:54;;;;;;;4.37;2.77;;;;;;;;;;4947353;28;20185;-36
2022/08/01 07:02:20;;;;;;;3.50;2.50;;;;;;;;;;4931881;28;20190;-36
2022/08/01 07:04:46;;;;;;;4.73;2.90;;;;;;;;;;4968296;28;20183;-37
2022/08/01 07:07:12;;;;;;;4.40;2.70;;;;;;;;;;4941400;28;20978;-37
2022/08/01 07:09:41;;;;;;;4.63;3.10;;;;;;;;;;4939770;28;20187;-37
2022/08/01 07:12:07;;;;;;;3.87;2.83;;;;;;;;;;4950690;28;20745;-37
2022/08/01 07:14:33;;;;;;;3.00;2.37;;;;;;;;;;4938449;28;20698;-37
2022/08/01 07:16:59;;;;;;;3.03;2.30;;;;;;;;;;4936872;28;20225;-37
2022/08/01 07:19:26;;;;;;;4.23;2.60;;;;;;;;;;4939630;28;20420;-37
2022/08/01 07:21:52;;;;;;;3.87;2.77;;;;;;;;;;4936931;28;20204;-37
2022/08/01 07:24:19;;;;;;;4.10;2.53;;;;;;;;;;4938111;28;20974;-37
2022/08/01 07:26:46;;;;;;;4.33;2.40;;;;;;;;;;4940091;28;20322;-37
2022/08/01 07:29:12;;;;;;;2.90;2.50;;;;;;;;;;4940991;28;20177;-37
2022/08/01 07:31:38;;;;;;;3.63;2.53;;;;;;;;;;4943721;28;20190;-37
2022/08/01 07:34:04;;;;;;;3.57;2.50;;;;;;;;;;4935930;28;20238;-36
2022/08/01 07:36:30;;;;;;;4.77;2.50;;;;;;;;;;4941284;28;20801;-37
2022/08/01 07:38:56;;;;;;;5.00;2.50;;;;;;;;;;4937286;28;20206;-37
2022/08/01 07:41:23;;;;;;;2.30;2.10;;;;;;;;;;4939073;28;20186;-37
2022/08/01 07:43:49;;;;;;;3.37;2.60;;;;;;;;;;4938891;28;20179;-37
2022/08/01 07:46:15;;;;;;;3.83;2.43;;;;;;;;;;4938526;28;20511;-37
2022/08/01 07:48:42;;;;;;;5.40;2.40;;;;;;;;;;4937072;28;20174;-37
2022/08/01 07:51:09;;;;;;;2.40;2.20;;;;;;;;;;4937459;28;20507;-37
2022/08/01 07:53:36;;;;;;;3.03;2.20;;;;;;;;;;4938428;28;20770;-37
2022/08/01 07:56:02;;;;;;;4.27;2.73;;;;;;;;;;4941809;28;20190;-37
2022/08/01 07:58:28;;;;;;;2.87;2.33;;;;;;;;;;4938825;28;20528;-37
2022/08/01 08:00:54;;;;;;;3.77;2.70;;;;;;;;;;4934255;28;20280;-37
2022/08/01 08:03:20;;;;;;;3.87;2.80;;;;;;;;;;4932312;28;20190;-36
2022/08/01 08:05:47;;;;;;;3.80;2.77;;;;;;;;;;4936845;28;20744;-36
2022/08/01 08:08:14;;;;;;;3.90;2.90;;;;;;;;;;4934484;28;20710;-36
2022/08/01 08:10:40;;;;;;;3.57;2.60;;;;;;;;;;4934976;28;21599;-37
2022/08/01 08:13:06;;;;;;;3.90;2.43;;;;;;;;;;4935216;28;20217;-36
2022/08/01 08:15:32;;;;;;;4.67;2.80;;;;;;;;;;4945169;28;20186;-36
2022/08/01 08:17:58;;;;;;;4.80;3.27;;;;;;;;;;4942383;28;20307;-36
2022/08/01 08:20:26;;;;;;;3.63;2.90;;;;;;;;;;4940241;28;20224;-36
2022/08/01 08:22:53;;;;;;;6.17;3.70;;;;;;;;;;4943207;28;20515;-36
2022/08/01 08:25:19;;;;;;;4.50;3.30;;;;;;;;;;4944918;28;20189;-36
2022/08/01 08:27:46;;;;;;;3.90;2.50;;;;;;;;;;4941854;28;20220;-36
2022/08/01 08:30:13;;;;;;;4.13;3.03;;;;;;;;;;4948030;28;20190;-36
2022/08/01 08:32:39;;;;;;;5.30;3.40;;;;;;;;;;4949133;28;20736;-37
2022/08/01 08:35:06;;;;;;;4.97;2.87;;;;;;;;;;4949437;28;20174;-37
2022/08/01 08:37:32;;;;;;;4.57;3.00;;;;;;;;;;4943188;28;20903;-37
2022/08/01 08:39:58;;;;;;;4.57;3.47;;;;;;;;;;4947236;28;20468;-36
2022/08/01 08:42:25;;;;;;;3.20;2.43;;;;;;;;;;4969481;28;20193;-36
2022/08/01 08:44:51;;;;;;;7.17;2.50;;;;;;;;;;4946252;28;20190;-37
2022/08/01 08:47:17;;;;;;;5.50;2.60;;;;;;;;;;4947319;28;20193;-37
2022/08/01 08:49:44;;;;;;;6.27;2.90;;;;;;;;;;4949015;28;20233;-37
2022/08/01 08:52:11;;;;;;;4.30;3.10;;;;;;;;;;4952776;28;20174;-37
2022/08/01 08:54:38;;;;;;;5.47;2.77;;;;;;;;;;4988521;28;20996;-37
2022/08/01 08:57:05;;;;;;;6.63;3.17;;;;;;;;;;4957458;28;20189;-37
2022/08/01 08:59:31;;;;;;;5.07;2.40;;;;;;;;;;4956559;28;20634;-37
2022/08/01 09:01:58;;;;;;;4.17;2.60;;;;;;;;;;4959270;28;20174;-37
2022/08/01 09:04:24;;;;;;;4.97;3.03;;;;;;;;;;4960322;28;20166;-37
2022/08/01 09:06:51;;;;;;;4.47;2.70;;;;;;;;;;4958937;28;21947;-37
2022/08/01 09:09:17;;;;;;;2.50;2.30;;;;;;;;;;4953922;28;20580;-37
2022/08/01 09:11:43;;;;;;;4.53;2.53;;;;;;;;;;4955109;28;20539;-37
2022/08/01 09:14:11;;;;;;;5.53;2.50;;;;;;;;;;4961062;28;20923;-37
2022/08/01 09:16:38;;;;;;;4.27;2.60;;;;;;;;;;4957094;28;20460;-38
2022/08/01 09:19:09;;;;;;;3.93;2.80;;;;;;;;;;4954937;28;20875;-36
2022/08/01 09:21:35;;;;;;;6.93;3.10;;;;;;;;;;4950813;28;20185;-37
2022/08/01 09:24:05;;;;;;;5.43;2.60;;;;;;;;;;4947652;28;20604;-37
2022/08/01 09:26:36;;;;;;;3.67;2.77;;;;;;;;;;4949849;28;20188;-37
2022/08/01 09:29:04;;;;;;;2.63;2.30;;;;;;;;;;4947599;28;20594;-38
2022/08/01 09:31:39;;;;;;;4.13;2.30;;;;;;;;;;4945067;28;20191;-37
2022/08/01 09:34:05;;;;;;;3.03;2.17;;;;;;;;;;4950796;28;20192;-38
2022/08/01 09:36:48;;;;;;;2.93;2.33;;;;;;;;;;4950926;28;20186;-38
2022/08/01 09:39:15;;;;;;;4.00;2.10;;;;;;;;;;4948003;28;20793;-37
2022/08/01 09:41:41;;;;;;;3.53;2.80;;;;;;;;;;4943444;28;20175;-37
2022/08/01 09:44:07;;;;;;;4.07;2.60;;;;;;;;;;4948388;28;20186;-36
2022/08/01 09:46:34;;;;;;;2.90;2.10;;;;;;;;;;4947967;28;20515;-37
2022/08/01 09:49:01;;;;;;;2.87;2.30;;;;;;;;;;4948321;28;20583;-37
2022/08/01 09:51:28;;;;;;;3.53;2.10;;;;;;;;;;4945580;28;20627;-38
2022/08/01 09:53:55;;;;;;;2.57;2.20;;;;;;;;;;4944917;28;20190;-37
2022/08/01 09:56:22;;;;;;;3.43;2.10;;;;;;;;;;4946025;28;20848;-37
2022/08/01 09:58:52;;;;;;;4.57;2.30;;;;;;;;;;4950037;28;20202;-38
2022/08/01 10:01:21;;;;;;;5.67;2.20;;;;;;;;;;4953003;28;20525;-38
2022/08/01 10:03:47;;;;;;;3.40;2.10;;;;;;;;;;4945344;28;20175;-38
2022/08/01 10:06:22;;;;;;;3.90;2.00;;;;;;;;;;4945398;28;20653;-37
2022/08/01 10:08:49;;;;;;;2.00;1.80;;;;;;;;;;4945519;28;20209;-37
2022/08/01 10:11:15;;;;;;;3.40;2.07;;;;;;;;;;4946232;28;20182;-37
2022/08/01 10:13:41;;;;;;;6.83;1.90;;;;;;;;;;4951816;28;20478;-37
2022/08/01 10:16:07;;;;;;;3.80;2.20;;;;;;;;;;4954546;28;20273;-37
2022/08/01 10:18:34;;;;;;;3.17;2.23;;;;;;;;;;4951541;28;20236;-37
2022/08/01 10:21:01;;;;;;;3.00;2.40;;;;;;;;;;4943326;28;20187;-37
2022/08/01 10:23:27;;;;;;;4.33;2.20;;;;;;;;;;4976051;28;20189;-37
2022/08/01 10:25:54;;;;;;;4.37;2.00;;;;;;;;;;4946475;28;20186;-36
2022/08/01 10:28:22;;;;;;;2.77;2.00;;;;;;;;;;4946544;28;20690;-38
2022/08/01 10:30:48;;;;;;;3.13;2.27;;;;;;;;;;4943134;28;20187;-36
2022/08/01 10:33:14;;;;;;;2.90;1.63;;;;;;;;;;4947782;28;20513;-37
2022/08/01 10:35:41;;;;;;;4.40;2.27;;;;;;;;;;4948380;28;20200;-37
2022/08/01 10:38:08;;;;;;;4.40;2.00;;;;;;;;;;4944153;28;20582;-37
2022/08/01 10:40:34;;;;;;;2.43;2.00;;;;;;;;;;4962960;28;20228;-37
2022/08/01 10:43:00;;;;;;;2.87;1.70;;;;;;;;;;4955033;28;20178;-36
2022/08/01 10:45:33;;;;;;;3.90;1.80;;;;;;;;;;4983699;28;20182;-37
2022/08/01 10:48:03;;;;;;;1.90;1.70;;;;;;;;;;4951599;28;20193;-36
2022/08/01 10:50:29;;;;;;;3.13;1.90;;;;;;;;;;4954898;28;20189;-37
2022/08/01 10:53:06;;;;;;;1.70;1.60;;;;;;;;;;4956945;28;20397;-37
2022/08/01 10:55:45;;;;;;;4.87;1.77;;;;;;;;;;4954050;28;20263;-37
2022/08/01 10:58:12;;;;;;;3.77;1.70;;;;;;;;;;4948836;28;20915;-37
2022/08/01 11:00:38;;;;;;;4.93;2.07;;;;;;;;;;4954122;28;20346;-37
2022/08/01 11:03:04;;;;;;;3.63;1.60;;;;;;;;;;4957494;28;20543;-37
2022/08/01 11:05:34;;;;;;;2.27;1.70;;;;;;;;;;4954937;28;20181;-37
2022/08/01 11:08:06;;;;;;;1.70;1.60;;;;;;;;;;4949594;28;20424;-37
2022/08/01 11:10:37;;;;;;;2.30;1.57;;;;;;;;;;4957062;28;20404;-36
2022/08/01 11:13:07;;;;;;;6.63;1.63;;;;;;;;;;4958605;28;20194;-36
2022/08/01 11:15:33;;;;;;;2.20;1.87;;;;;;;;;;4952394;28;20179;-37
2022/08/01 11:18:01;;;;;;;2.40;1.90;;;;;;;;;;4950399;28;20883;-37
2022/08/01 11:20:34;;;;;;;3.43;1.90;;;;;;;;;;4968237;28;20733;-36
2022/08/01 11:23:01;;;;;;;4.00;1.83;;;;;;;;;;4957503;28;20682;-36
2022/08/01 11:25:27;;;;;;;1.90;1.70;;;;;;;;;;4955285;28;20469;-36
2022/08/01 11:28:11;;;;;;;3.13;1.70;;;;;;;;;;4953305;28;21102;-37
2022/08/01 11:30:37;;;;;;;2.33;1.70;;;;;;;;;;4951415;28;20643;-37
2022/08/01 11:33:05;;;;;;;2.93;1.60;;;;;;;;;;4946608;28;20617;-38
2022/08/01 11:35:32;;;;;;;4.43;1.90;;;;;;;;;;4946792;28;20304;-38
2022/08/01 11:38:18;;;;;;;2.00;1.70;;;;;;;;;;4944388;28;21088;-37
2022/08/01 11:40:44;;;;;;;2.93;1.60;;;;;;;;;;4948819;28;20182;-37
2022/08/01 11:43:13;;;;;;;2.20;1.73;;;;;;;;;;4955661;28;20187;-37
2022/08/01 11:45:48;;;;;;;3.23;1.73;;;;;;;;;;4952629;28;20441;-38
2022/08/01 11:48:21;;;;;;;3.80;1.70;;;;;;;;;;4945755;28;20217;-37
2022/08/01 11:50:47;;;;;;;2.40;1.50;;;;;;;;;;4947807;28;20737;-37
2022/08/01 11:53:15;;;;;;;3.17;1.97;;;;;;;;;;4952927;28;20622;-37
2022/08/01 11:55:48;;;;;;;4.53;2.10;;;;;;;;;;4951921;28;20191;-37
2022/08/01 11:58:14;;;;;;;2.27;1.40;;;;;;;;;;4957838;28;20198;-37
2022/08/01 12:00:41;;;;;;;2.07;1.53;;;;;;;;;;4955178;28;20229;-37
2022/08/01 12:03:08;;;;;;;4.67;1.77;;;;;;;;;;4952534;28;20194;-37
2022/08/01 12:05:38;;;;;;;2.63;1.60;;;;;;;;;;4953189;28;21095;-37
2022/08/01 12:08:05;;;;;;;3.00;1.73;;;;;;;;;;4949834;28;20198;-37
2022/08/01 12:10:36;;;;;;;1.80;1.60;;;;;;;;;;4950602;28;20277;-37
2022/08/01 12:13:03;;;;;;;1.93;1.40;;;;;;;;;;4958636;28;20261;-37
2022/08/01 12:15:31;;;;;;;1.60;1.50;;;;;;;;;;4957073;28;20182;-37
2022/08/01 12:17:58;;;;;;;1.63;1.40;;;;;;;;;;4955569;28;20213;-37
2022/08/01 12:20:25;;;;;;;3.30;1.60;;;;;;;;;;4953850;28;20948;-37
2022/08/01 12:22:54;;;;;;;2.57;1.80;;;;;;;;;;4957514;28;20181;-37
2022/08/01 12:25:21;;;;;;;2.37;1.80;;;;;;;;;;4958520;28;21254;-37
2022/08/01 12:27:47;;;;;;;4.10;1.70;;;;;;;;;;4956545;28;20212;-37
2022/08/01 12:30:24;;;;;;;2.73;1.63;;;;;;;;;;4954473;28;20182;-37
2022/08/01 12:32:51;;;;;;;4.10;1.67;;;;;;;;;;4956260;28;20264;-37
2022/08/01 12:35:27;;;;;;;3.43;1.80;;;;;;;;;;4958964;28;20182;-37
2022/08/01 12:37:55;;;;;;;4.53;1.40;;;;;;;;;;4958422;28;20186;-37
2022/08/01 12:40:26;;;;;;;1.63;1.53;;;;;;;;;;4954712;28;20903;-37
2022/08/01 12:42:53;;;;;;;1.70;1.60;;;;;;;;;;4955143;28;20185;-38
2022/08/01 12:45:20;;;;;;;1.80;1.40;;;;;;;;;;4957205;28;20175;-38
2022/08/01 12:47:48;;;;;;;2.70;1.60;;;;;;;;;;4957753;28;20764;-38
2022/08/01 12:50:19;;;;;;;1.53;1.27;;;;;;;;;;4956658;28;20297;-38
2022/08/01 12:52:45;;;;;;;4.67;1.40;;;;;;;;;;4957634;28;20187;-37
2022/08/01 12:55:17;;;;;;;3.33;1.40;;;;;;;;;;4956492;28;21030;-36
2022/08/01 12:57:44;;;;;;;2.30;1.30;;;;;;;;;;4953358;28;20179;-37
2022/08/01 13:00:19;;;;;;;3.40;1.70;;;;;;;;;;4964762;28;20221;-37
2022/08/01 13:02:47;;;;;;;2.03;1.60;;;;;;;;;;4953759;28;20253;-37
2022/08/01 13:05:14;;;;;;;5.90;1.50;;;;;;;;;;4954200;28;20830;-37
2022/08/01 13:07:43;;;;;;;1.97;1.40;;;;;;;;;;4945193;28;20212;-38
2022/08/01 13:10:09;;;;;;;1.97;1.57;;;;;;;;;;4942784;28;21385;-37
2022/08/01 13:12:35;;;;;;;2.13;1.60;;;;;;;;;;4942488;28;20179;-38
2022/08/01 13:15:18;;;;;;;1.93;1.50;;;;;;;;;;4946926;28;20282;-37
2022/08/01 13:17:44;;;;;;;3.47;1.50;;;;;;;;;;4947816;28;20180;-37
2022/08/01 13:20:10;;;;;;;3.13;1.43;;;;;;;;;;4975312;28;20223;-37
2022/08/01 13:22:37;;;;;;;1.47;1.23;;;;;;;;;;4947703;28;20399;-37
2022/08/01 13:25:13;;;;;;;3.80;1.37;;;;;;;;;;4946767;28;20805;-37
2022/08/01 13:27:40;;;;;;;3.63;1.40;;;;;;;;;;4942771;28;20185;-37
2022/08/01 13:30:13;;;;;;;3.37;1.50;;;;;;;;;;4947573;28;20520;-37
2022/08/01 13:32:40;;;;;;;1.85;1.35;;;;;;;;;;4956839;28;20581;-37
2022/08/01 13:35:07;;;;;;;1.40;1.20;;;;;;;;;;4956336;28;20517;-37
2022/08/01 13:37:33;;;;;;;1.55;1.33;;;;;;;;;;4954280;28;20701;-38
2022/08/01 13:40:00;;;;;;;2.10;1.20;;;;;;;;;;4954835;28;20276;-38
2022/08/01 13:42:26;;;;;;;2.40;1.20;;;;;;;;;;4955079;28;20174;-37
2022/08/01 13:44:52;;;;;;;1.27;1.10;;;;;;;;;;4956845;28;20185;-38
2022/08/01 13:47:18;;;;;;;3.15;1.30;;;;;;;;;;4956593;28;20174;-37
2022/08/01 13:49:44;;;;;;;2.00;1.35;;;;;;;;;;4948962;28;20674;-37
2022/08/01 13:52:10;;;;;;;2.17;1.35;;;;;;;;;;4955044;28;20209;-38
2022/08/01 13:54:37;;;;;;;2.42;1.10;;;;;;;;;;4955160;28;20572;-37
2022/08/01 13:57:03;;;;;;;1.50;1.40;;;;;;;;;;4956670;28;20369;-37
2022/08/01 13:59:29;;;;;;;2.20;1.25;;;;;;;;;;4950869;28;20960;-38
2022/08/01 14:01:55;;;;;;;1.27;1.02;;;;;;;;;;4947513;28;20624;-37
2022/08/01 14:04:21;;;;;;;2.08;1.27;;;;;;;;;;4950293;28;20695;-36
2022/08/01 14:06:48;;;;;;;2.10;1.48;;;;;;;;;;4948220;28;20182;-37
2022/08/01 14:09:16;;;;;;;1.88;1.23;;;;;;;;;;4946553;28;20229;-37
2022/08/01 14:11:42;;;;;;;2.55;1.30;;;;;;;;;;4954825;28;20640;-37
2022/08/01 14:14:08;;;;;;;4.22;1.40;;;;;;;;;;4956894;28;20249;-37
2022/08/01 14:16:37;;;;;;;2.28;1.33;;;;;;;;;;4952587;28;20183;-37
2022/08/01 14:19:03;;;;;;;2.80;1.20;;;;;;;;;;4952894;28;21021;-37
2022/08/01 14:21:29;;;;;;;2.92;1.23;;;;;;;;;;4953142;28;20178;-38
2022/08/01 14:23:55;;;;;;;1.30;1.20;;;;;;;;;;4986411;28;20671;-38
2022/08/01 14:26:22;;;;;;;1.25;1.15;;;;;;;;;;4953174;28;20603;-38
2022/08/01 14:28:48;;;;;;;1.45;1.25;;;;;;;;;;4951307;28;20186;-37
2022/08/01 14:31:14;;;;;;;2.38;1.40;;;;;;;;;;4955055;28;20182;-37
2022/08/01 14:33:40;;;;;;;1.98;1.25;;;;;;;;;;4955534;28;20182;-36
2022/08/01 14:36:06;;;;;;;1.58;1.20;;;;;;;;;;4955252;28;20710;-37
2022/08/01 14:38:32;;;;;;;2.22;1.10;;;;;;;;;;4946281;28;21008;-37
2022/08/01 14:40:59;;;;;;;3.83;1.33;;;;;;;;;;4949886;28;20260;-37
2022/08/01 14:43:26;;;;;;;2.45;1.30;;;;;;;;;;4947622;28;20781;-36
2022/08/01 14:45:54;;;;;;;2.08;1.20;;;;;;;;;;4944718;28;20170;-37